sensor_id;sensor_type;location;lat;lon;timestamp;pressure;altitude;pressure_sealevel;temperature;humidity
22440;BME280;11387;51.612;7.210;2023-02-12T00:02:11;102938.06;;;7.15;91.90
22440;BME280;11387;51.612;7.210;2023-02-12T00:04:39;102935.34;;;7.15;91.55
22440;BME280;11387;51.612;7.210;2023-02-12T00:07:09;102942.69;;;7.14;91.90
22440;BME280;11387;51.612;7.210;2023-02-12T00:09:39;102942.91;;;7.13;91.73
22440;BME280;11387;51.612;7.210;2023-02-12T00:12:07;102937.88;;;7.09;92.18
22440;BME280;11387;51.612;7.210;2023-02-12T00:14:36;102939.13;;;7.14;91.41
22440;BME280;11387;51.612;7.210;2023-02-12T00:17:04;102933.50;;;7.08;91.74
22440;BME280;11387;51.612;7.210;2023-02-12T00:19:33;102924.72;;;7.06;91.85
22440;BME280;11387;51.612;7.210;2023-02-12T00:22:01;102927.63;;;7.12;92.36
22440;BME280;11387;51.612;7.210;2023-02-12T00:24:29;102933.25;;;7.17;92.15
22440;BME280;11387;51.612;7.210;2023-02-12T00:26:59;102932.19;;;7.18;91.11
22440;BME280;11387;51.612;7.210;2023-02-12T00:29:28;102935.13;;;7.16;91.18
22440;BME280;11387;51.612;7.210;2023-02-12T00:31:56;102934.31;;;7.16;91.91
22440;BME280;11387;51.612;7.210;2023-02-12T00:34:25;102934.31;;;7.16;91.65
22440;BME280;11387;51.612;7.210;2023-02-12T00:36:53;102935.13;;;7.16;91.62
22440;BME280;11387;51.612;7.210;2023-02-12T00:39:22;102931.31;;;7.24;90.97
22440;BME280;11387;51.612;7.210;2023-02-12T00:41:50;102924.59;;;7.26;90.13
22440;BME280;11387;51.612;7.210;2023-02-12T00:44:20;102921.31;;;7.18;90.83
22440;BME280;11387;51.612;7.210;2023-02-12T00:46:49;102931.41;;;7.10;91.14
22440;BME280;11387;51.612;7.210;2023-02-12T00:49:17;102932.25;;;7.04;91.17
22440;BME280;11387;51.612;7.210;2023-02-12T00:51:46;102931.69;;;7.02;91.39
22440;BME280;11387;51.612;7.210;2023-02-12T00:54:15;102933.16;;;6.98;91.98
22440;BME280;11387;51.612;7.210;2023-02-12T00:56:44;102930.00;;;7.01;92.31
22440;BME280;11387;51.612;7.210;2023-02-12T00:59:12;102937.13;;;7.02;91.75
22440;BME280;11387;51.612;7.210;2023-02-12T01:01:42;102935.44;;;7.01;91.75
22440;BME280;11387;51.612;7.210;2023-02-12T01:04:11;102933.16;;;6.98;92.67
22440;BME280;11387;51.612;7.210;2023-02-12T01:06:39;102933.78;;;7.00;92.62
22440;BME280;11387;51.612;7.210;2023-02-12T01:09:08;102932.44;;;7.09;92.17
22440;BME280;11387;51.612;7.210;2023-02-12T01:11:36;102930.16;;;7.06;91.83
22440;BME280;11387;51.612;7.210;2023-02-12T01:14:05;102930.53;;;7.17;91.71
22440;BME280;11387;51.612;7.210;2023-02-12T01:16:34;102932.63;;;7.15;91.34
22440;BME280;11387;51.612;7.210;2023-02-12T01:19:05;102922.56;;;7.15;91.39
22440;BME280;11387;51.612;7.210;2023-02-12T01:21:34;102919.28;;;7.06;91.92
22440;BME280;11387;51.612;7.210;2023-02-12T01:24:02;102912.78;;;7.07;92.33
22440;BME280;11387;51.612;7.210;2023-02-12T01:26:31;102917.81;;;7.04;92.07
22440;BME280;11387;51.612;7.210;2023-02-12T01:29:02;102919.28;;;7.06;92.01
22440;BME280;11387;51.612;7.210;2023-02-12T01:31:33;102916.53;;;7.06;91.88
22440;BME280;11387;51.612;7.210;2023-02-12T01:34:06;102916.84;;;6.98;91.82
22440;BME280;11387;51.612;7.210;2023-02-12T01:36:34;102916.41;;;7.01;91.94
22440;BME280;11387;51.612;7.210;2023-02-12T01:39:03;102915.78;;;6.99;92.31
22440;BME280;11387;51.612;7.210;2023-02-12T01:41:34;102917.44;;;7.00;92.05
22440;BME280;11387;51.612;7.210;2023-02-12T01:44:08;102916.00;;;6.98;91.97
22440;BME280;11387;51.612;7.210;2023-02-12T01:46:38;102917.69;;;6.92;92.21
22440;BME280;11387;51.612;7.210;2023-02-12T01:49:12;102913.13;;;6.86;92.16
22440;BME280;11387;51.612;7.210;2023-02-12T01:51:42;102916.47;;;6.88;92.73
22440;BME280;11387;51.612;7.210;2023-02-12T01:54:14;102913.28;;;6.98;92.30
22440;BME280;11387;51.612;7.210;2023-02-12T01:56:44;102915.16;;;6.97;91.88
22440;BME280;11387;51.612;7.210;2023-02-12T01:59:13;102922.63;;;7.08;92.06
22440;BME280;11387;51.612;7.210;2023-02-12T02:01:41;102914.72;;;7.00;91.58
22440;BME280;11387;51.612;7.210;2023-02-12T02:04:14;102910.38;;;6.93;91.34
22440;BME280;11387;51.612;7.210;2023-02-12T02:06:48;102913.13;;;6.86;92.12
22440;BME280;11387;51.612;7.210;2023-02-12T02:09:18;102911.44;;;6.85;92.10
22440;BME280;11387;51.612;7.210;2023-02-12T02:11:47;102911.44;;;6.85;91.73
22440;BME280;11387;51.612;7.210;2023-02-12T02:14:34;102909.34;;;6.87;92.73
22440;BME280;11387;51.612;7.210;2023-02-12T02:20:38;102906.81;;;6.92;92.10
22440;BME280;11387;51.612;7.210;2023-02-12T02:23:26;102908.31;;;6.88;91.54
22440;BME280;11387;51.612;7.210;2023-02-12T02:26:19;102915.22;;;6.84;91.82
22440;BME280;11387;51.612;7.210;2023-02-12T02:29:19;102900.56;;;6.85;92.67
22440;BME280;11387;51.612;7.210;2023-02-12T02:32:01;102902.63;;;6.90;92.44
22440;BME280;11387;51.612;7.210;2023-02-12T02:34:37;102899.72;;;6.85;92.27
22440;BME280;11387;51.612;7.210;2023-02-12T02:37:13;102894.28;;;6.85;92.49
22440;BME280;11387;51.612;7.210;2023-02-12T02:39:49;102898.47;;;6.87;92.18
22440;BME280;11387;51.612;7.210;2023-02-12T02:42:24;102893.47;;;6.84;92.50
22440;BME280;11387;51.612;7.210;2023-02-12T02:44:58;102894.28;;;6.85;92.36
22440;BME280;11387;51.612;7.210;2023-02-12T02:47:33;102900.56;;;6.85;92.39
22440;BME280;11387;51.612;7.210;2023-02-12T02:50:09;102897.22;;;6.83;92.89
22440;BME280;11387;51.612;7.210;2023-02-12T02:52:44;102894.31;;;6.78;92.26
22440;BME280;11387;51.612;7.210;2023-02-12T02:55:16;102888.03;;;6.78;92.56
22440;BME280;11387;51.612;7.210;2023-02-12T02:57:49;102886.78;;;6.80;92.66
22440;BME280;11387;51.612;7.210;2023-02-12T03:00:21;102891.78;;;6.83;92.95
22440;BME280;11387;51.612;7.210;2023-02-12T03:02:55;102897.84;;;6.85;92.67
22440;BME280;11387;51.612;7.210;2023-02-12T03:05:30;102898.91;;;6.84;91.95
22440;BME280;11387;51.612;7.210;2023-02-12T03:08:05;102894.69;;;6.88;92.26
22440;BME280;11387;51.612;7.210;2023-02-12T03:10:40;102882.75;;;6.89;91.99
22440;BME280;11387;51.612;7.210;2023-02-12T03:13:14;102886.75;;;6.87;91.87
22440;BME280;11387;51.612;7.210;2023-02-12T03:15:50;102883.81;;;6.88;91.94
22440;BME280;11387;51.612;7.210;2023-02-12T03:18:23;102889.44;;;6.93;91.61
22440;BME280;11387;51.612;7.210;2023-02-12T03:20:58;102889.88;;;6.90;91.81
22440;BME280;11387;51.612;7.210;2023-02-12T03:23:30;102890.50;;;6.92;91.36
22440;BME280;11387;51.612;7.210;2023-02-12T03:26:05;102889.25;;;6.88;91.74
22440;BME280;11387;51.612;7.210;2023-02-12T03:28:37;102879.19;;;6.89;91.44
22440;BME280;11387;51.612;7.210;2023-02-12T03:31:10;102884.03;;;6.87;91.79
22440;BME280;11387;51.612;7.210;2023-02-12T03:33:53;102885.50;;;6.83;91.45
22440;BME280;11387;51.612;7.210;2023-02-12T03:36:32;102888.44;;;6.81;91.77
22440;BME280;11387;51.612;7.210;2023-02-12T03:39:08;102898.28;;;6.82;91.67
22440;BME280;11387;51.612;7.210;2023-02-12T03:41:42;102892.22;;;6.80;91.02
22440;BME280;11387;51.612;7.210;2023-02-12T03:44:18;102890.56;;;6.79;91.30
22440;BME280;11387;51.612;7.210;2023-02-12T03:46:58;102891.81;;;6.76;90.79
22440;BME280;11387;51.612;7.210;2023-02-12T03:49:33;102899.56;;;6.73;91.47
22440;BME280;11387;51.612;7.210;2023-02-12T03:52:04;102894.13;;;6.73;91.03
22440;BME280;11387;51.612;7.210;2023-02-12T03:54:33;102900.66;;;6.72;91.64
22440;BME280;11387;51.612;7.210;2023-02-12T03:57:06;102895.22;;;6.72;91.32
22440;BME280;11387;51.612;7.210;2023-02-12T03:59:38;102893.09;;;6.74;91.25
22440;BME280;11387;51.612;7.210;2023-02-12T04:02:08;102909.88;;;6.71;91.13
22440;BME280;11387;51.612;7.210;2023-02-12T04:04:38;102905.47;;;6.70;91.05
22440;BME280;11387;51.612;7.210;2023-02-12T04:07:07;102900.88;;;6.70;90.97
22440;BME280;11387;51.612;7.210;2023-02-12T04:09:35;102919.09;;;6.70;91.42
22440;BME280;11387;51.612;7.210;2023-02-12T04:12:17;102914.47;;;6.70;91.31
22440;BME280;11387;51.612;7.210;2023-02-12T04:14:52;102910.09;;;6.69;91.19
22440;BME280;11387;51.612;7.210;2023-02-12T04:17:29;102915.13;;;6.66;90.70
22440;BME280;11387;51.612;7.210;2023-02-12T04:20:08;102924.53;;;6.63;91.45
22440;BME280;11387;51.612;7.210;2023-02-12T04:22:45;102924.31;;;6.65;91.15
22440;BME280;11387;51.612;7.210;2023-02-12T04:25:27;102923.72;;;6.63;91.23
22440;BME280;11387;51.612;7.210;2023-02-12T04:28:06;102929.16;;;6.63;91.08
22440;BME280;11387;51.612;7.210;2023-02-12T04:30:43;102929.38;;;6.61;90.73
22440;BME280;11387;51.612;7.210;2023-02-12T04:33:17;102940.03;;;6.63;91.24
22440;BME280;11387;51.612;7.210;2023-02-12T04:35:50;102931.25;;;6.61;90.91
22440;BME280;11387;51.612;7.210;2023-02-12T04:38:25;102943.78;;;6.62;90.94
22440;BME280;11387;51.612;7.210;2023-02-12T04:40:57;102938.34;;;6.62;90.70
22440;BME280;11387;51.612;7.210;2023-02-12T04:43:27;102945.66;;;6.68;91.33
22440;BME280;11387;51.612;7.210;2023-02-12T04:45:56;102946.72;;;6.67;90.30
22440;BME280;11387;51.612;7.210;2023-02-12T04:48:25;102947.53;;;6.67;91.03
22440;BME280;11387;51.612;7.210;2023-02-12T04:50:55;102952.38;;;6.65;90.16
22440;BME280;11387;51.612;7.210;2023-02-12T04:53:24;102949.66;;;6.65;90.65
22440;BME280;11387;51.612;7.210;2023-02-12T04:55:52;102952.16;;;6.67;90.30
22440;BME280;11387;51.612;7.210;2023-02-12T04:58:21;102958.84;;;6.64;90.23
22440;BME280;11387;51.612;7.210;2023-02-12T05:00:50;102960.34;;;6.60;90.49
22440;BME280;11387;51.612;7.210;2023-02-12T05:03:19;102954.25;;;6.65;89.28
22440;BME280;11387;51.612;7.210;2023-02-12T05:05:47;102955.91;;;6.66;90.16
22440;BME280;11387;51.612;7.210;2023-02-12T05:08:17;102959.28;;;6.61;90.05
22440;BME280;11387;51.612;7.210;2023-02-12T05:10:46;102957.19;;;6.57;90.53
22440;BME280;11387;51.612;7.210;2023-02-12T05:13:14;102951.34;;;6.53;90.65
22440;BME280;11387;51.612;7.210;2023-02-12T05:15:42;102952.19;;;6.54;91.36
22440;BME280;11387;51.612;7.210;2023-02-12T05:18:11;102955.13;;;6.52;91.23
22440;BME280;11387;51.612;7.210;2023-02-12T05:20:40;102962.44;;;6.52;91.24
22440;BME280;11387;51.612;7.210;2023-02-12T05:23:08;102959.72;;;6.52;91.40
22440;BME280;11387;51.612;7.210;2023-02-12T05:25:38;102962.03;;;6.55;91.63
22440;BME280;11387;51.612;7.210;2023-02-12T05:28:07;102955.50;;;6.69;91.30
22440;BME280;11387;51.612;7.210;2023-02-12T05:30:35;102959.25;;;6.68;91.24
22440;BME280;11387;51.612;7.210;2023-02-12T05:33:04;102971.63;;;6.64;90.96
22440;BME280;11387;51.612;7.210;2023-02-12T05:35:33;102963.88;;;6.67;91.50
22440;BME280;11387;51.612;7.210;2023-02-12T05:38:02;102968.47;;;6.67;90.66
22440;BME280;11387;51.612;7.210;2023-02-12T05:40:30;102970.16;;;6.68;90.92
22440;BME280;11387;51.612;7.210;2023-02-12T05:43:00;102967.00;;;6.64;90.79
22440;BME280;11387;51.612;7.210;2023-02-12T05:45:32;102972.47;;;6.58;90.76
22440;BME280;11387;51.612;7.210;2023-02-12T05:48:00;102973.09;;;6.53;91.24
22440;BME280;11387;51.612;7.210;2023-02-12T05:50:29;102974.34;;;6.57;91.16
22440;BME280;11387;51.612;7.210;2023-02-12T05:52:58;102966.00;;;6.52;90.90
22440;BME280;11387;51.612;7.210;2023-02-12T05:55:27;102971.22;;;6.54;91.44
22440;BME280;11387;51.612;7.210;2023-02-12T05:57:55;102969.13;;;6.56;91.08
22440;BME280;11387;51.612;7.210;2023-02-12T06:00:25;102965.56;;;6.55;91.15
22440;BME280;11387;51.612;7.210;2023-02-12T06:02:54;102965.97;;;6.59;91.35
22440;BME280;11387;51.612;7.210;2023-02-12T06:05:22;102966.59;;;6.61;91.20
22440;BME280;11387;51.612;7.210;2023-02-12T06:07:51;102974.75;;;6.61;91.09
22440;BME280;11387;51.612;7.210;2023-02-12T06:10:19;102973.50;;;6.63;91.04
22440;BME280;11387;51.612;7.210;2023-02-12T06:12:52;102971.81;;;6.69;90.69
22440;BME280;11387;51.612;7.210;2023-02-12T06:15:21;102984.16;;;6.65;90.73
22440;BME280;11387;51.612;7.210;2023-02-12T06:17:51;102974.28;;;6.77;90.85
22440;BME280;11387;51.612;7.210;2023-02-12T06:20:19;102983.09;;;6.72;90.53
22440;BME280;11387;51.612;7.210;2023-02-12T06:22:48;102981.19;;;6.73;90.50
22440;BME280;11387;51.612;7.210;2023-02-12T06:25:16;102976.22;;;6.70;89.90
22440;BME280;11387;51.612;7.210;2023-02-12T06:27:45;102973.91;;;6.67;90.60
22440;BME280;11387;51.612;7.210;2023-02-12T06:30:14;102974.34;;;6.64;91.08
22440;BME280;11387;51.612;7.210;2023-02-12T06:32:42;102983.47;;;6.76;90.55
22440;BME280;11387;51.612;7.210;2023-02-12T06:35:12;102977.69;;;6.66;90.83
22440;BME280;11387;51.612;7.210;2023-02-12T06:37:41;102978.09;;;6.63;90.71
22440;BME280;11387;51.612;7.210;2023-02-12T06:40:10;102977.28;;;6.62;91.55
22440;BME280;11387;51.612;7.210;2023-02-12T06:42:38;102985.22;;;6.64;90.94
22440;BME280;11387;51.612;7.210;2023-02-12T06:45:07;102985.66;;;6.61;90.97
22440;BME280;11387;51.612;7.210;2023-02-12T06:47:36;102990.66;;;6.64;90.71
22440;BME280;11387;51.612;7.210;2023-02-12T06:50:05;102990.44;;;6.72;91.09
22440;BME280;11387;51.612;7.210;2023-02-12T06:52:35;102992.25;;;6.78;90.75
22440;BME280;11387;51.612;7.210;2023-02-12T06:55:04;102992.25;;;6.78;90.96
22440;BME280;11387;51.612;7.210;2023-02-12T06:57:33;102990.16;;;6.80;90.71
22440;BME280;11387;51.612;7.210;2023-02-12T07:00:01;102995.59;;;6.80;90.70
22440;BME280;11387;51.612;7.210;2023-02-12T07:02:30;102996.88;;;6.78;90.64
22440;BME280;11387;51.612;7.210;2023-02-12T07:04:59;102993.50;;;6.82;91.41
22440;BME280;11387;51.612;7.210;2023-02-12T07:07:27;102995.59;;;6.80;91.28
22440;BME280;11387;51.612;7.210;2023-02-12T07:09:57;102998.75;;;6.77;91.22
22440;BME280;11387;51.612;7.210;2023-02-12T07:12:26;102995.38;;;6.82;90.81
22440;BME280;11387;51.612;7.210;2023-02-12T07:14:54;103000.22;;;6.80;90.89
22440;BME280;11387;51.612;7.210;2023-02-12T07:17:23;103001.66;;;6.82;91.29
22440;BME280;11387;51.612;7.210;2023-02-12T07:19:51;102998.53;;;6.85;91.38
22440;BME280;11387;51.612;7.210;2023-02-12T07:22:19;102997.66;;;6.91;90.87
22440;BME280;11387;51.612;7.210;2023-02-12T07:24:48;103002.69;;;6.94;91.02
22440;BME280;11387;51.612;7.210;2023-02-12T07:27:19;103007.69;;;6.97;90.81
22440;BME280;11387;51.612;7.210;2023-02-12T07:29:47;103014.28;;;7.15;90.31
22440;BME280;11387;51.612;7.210;2023-02-12T07:32:16;103005.06;;;7.16;89.38
22440;BME280;11387;51.612;7.210;2023-02-12T07:34:45;103008.59;;;7.23;89.24
22440;BME280;11387;51.612;7.210;2023-02-12T07:37:14;103008.78;;;7.28;89.11
22440;BME280;11387;51.612;7.210;2023-02-12T07:39:43;103021.50;;;7.34;88.14
22440;BME280;11387;51.612;7.210;2023-02-12T07:42:11;103016.88;;;7.41;88.54
22440;BME280;11387;51.612;7.210;2023-02-12T07:44:42;103027.53;;;7.42;87.58
22440;BME280;11387;51.612;7.210;2023-02-12T07:47:11;103019.34;;;7.49;88.03
22440;BME280;11387;51.612;7.210;2023-02-12T07:49:42;103027.25;;;7.57;87.72
22440;BME280;11387;51.612;7.210;2023-02-12T07:52:11;103019.03;;;7.64;87.64
22440;BME280;11387;51.612;7.210;2023-02-12T07:54:39;103030.31;;;7.67;86.51
22440;BME280;11387;51.612;7.210;2023-02-12T07:57:08;103034.56;;;7.63;85.44
22440;BME280;11387;51.612;7.210;2023-02-12T07:59:36;103031.56;;;7.65;85.59
22440;BME280;11387;51.612;7.210;2023-02-12T08:02:08;103033.25;;;7.66;85.46
22440;BME280;11387;51.612;7.210;2023-02-12T08:04:36;103035.38;;;7.64;85.22
22440;BME280;11387;51.612;7.210;2023-02-12T08:07:05;103035.75;;;7.67;84.74
22440;BME280;11387;51.612;7.210;2023-02-12T08:09:33;103046.22;;;7.70;84.41
22440;BME280;11387;51.612;7.210;2023-02-12T08:12:02;103045.81;;;7.67;84.81
22440;BME280;11387;51.612;7.210;2023-02-12T08:14:31;103053.84;;;7.62;84.87
22440;BME280;11387;51.612;7.210;2023-02-12T08:17:00;103057.22;;;7.57;85.39
22440;BME280;11387;51.612;7.210;2023-02-12T08:19:29;103058.47;;;7.61;85.56
22440;BME280;11387;51.612;7.210;2023-02-12T08:22:00;103057.56;;;7.67;85.80
22440;BME280;11387;51.612;7.210;2023-02-12T08:24:40;103059.00;;;7.70;85.24
22440;BME280;11387;51.612;7.210;2023-02-12T08:27:09;103063.19;;;7.72;85.25
22440;BME280;11387;51.612;7.210;2023-02-12T08:29:40;103059.81;;;7.77;85.66
22440;BME280;11387;51.612;7.210;2023-02-12T08:32:09;103069.03;;;7.76;85.32
22440;BME280;11387;51.612;7.210;2023-02-12T08:34:41;103063.75;;;7.81;85.50
22440;BME280;11387;51.612;7.210;2023-02-12T08:37:10;103055.75;;;7.86;85.78
22440;BME280;11387;51.612;7.210;2023-02-12T08:39:40;103066.53;;;7.99;85.28
22440;BME280;11387;51.612;7.210;2023-02-12T08:42:09;103069.22;;;8.06;84.66
22440;BME280;11387;51.612;7.210;2023-02-12T08:44:37;103066.91;;;8.09;84.03
22440;BME280;11387;51.612;7.210;2023-02-12T08:47:07;103069.19;;;8.13;83.92
22440;BME280;11387;51.612;7.210;2023-02-12T08:49:36;103064.28;;;8.21;84.15
22440;BME280;11387;51.612;7.210;2023-02-12T08:52:06;103065.03;;;8.28;83.23
22440;BME280;11387;51.612;7.210;2023-02-12T08:54:34;103070.69;;;8.33;82.83
22440;BME280;11387;51.612;7.210;2023-02-12T08:57:03;103078.00;;;8.39;82.46
22440;BME280;11387;51.612;7.210;2023-02-12T08:59:31;103082.28;;;8.54;82.10
22440;BME280;11387;51.612;7.210;2023-02-12T09:02:00;103075.28;;;8.58;81.56
22440;BME280;11387;51.612;7.210;2023-02-12T09:04:30;103075.94;;;8.78;80.05
22440;BME280;11387;51.612;7.210;2023-02-12T09:06:58;103075.78;;;8.91;78.95
22440;BME280;11387;51.612;7.210;2023-02-12T09:09:28;103080.31;;;8.97;78.34
22440;BME280;11387;51.612;7.210;2023-02-12T09:11:57;103082.91;;;8.92;76.83
22440;BME280;11387;51.612;7.210;2023-02-12T09:14:25;103078.34;;;9.04;76.80
22440;BME280;11387;51.612;7.210;2023-02-12T09:16:54;103084.25;;;9.20;76.64
22440;BME280;11387;51.612;7.210;2023-02-12T09:19:23;103088.19;;;9.42;75.73
22440;BME280;11387;51.612;7.210;2023-02-12T09:21:52;103086.06;;;9.44;73.41
22440;BME280;11387;51.612;7.210;2023-02-12T09:24:25;103085.44;;;9.42;72.55
22440;BME280;11387;51.612;7.210;2023-02-12T09:26:56;103079.38;;;9.40;71.92
22440;BME280;11387;51.612;7.210;2023-02-12T09:29:24;103087.84;;;9.50;71.83
22440;BME280;11387;51.612;7.210;2023-02-12T09:31:53;103088.06;;;9.49;71.00
22440;BME280;11387;51.612;7.210;2023-02-12T09:34:23;103090.81;;;9.49;70.47
22440;BME280;11387;51.612;7.210;2023-02-12T09:36:52;103088.19;;;9.42;70.73
22440;BME280;11387;51.612;7.210;2023-02-12T09:39:20;103094.81;;;9.64;70.02
22440;BME280;11387;51.612;7.210;2023-02-12T09:42:08;103088.13;;;9.60;70.62
22440;BME280;11387;51.612;7.210;2023-02-12T09:44:47;103084.94;;;9.63;70.33
22440;BME280;11387;51.612;7.210;2023-02-12T09:47:24;103095.69;;;9.76;69.96
22440;BME280;11387;51.612;7.210;2023-02-12T09:50:16;103096.88;;;9.80;69.37
22440;BME280;11387;51.612;7.210;2023-02-12T09:52:52;103091.28;;;9.75;69.47
22440;BME280;11387;51.612;7.210;2023-02-12T09:55:26;103086.44;;;9.77;69.95
22440;BME280;11387;51.612;7.210;2023-02-12T09:57:58;103096.53;;;9.77;69.66
22440;BME280;11387;51.612;7.210;2023-02-12T10:00:29;103099.94;;;9.72;70.03
22440;BME280;11387;51.612;7.210;2023-02-12T10:03:00;103099.00;;;9.78;70.15
22440;BME280;11387;51.612;7.210;2023-02-12T10:05:36;103100.56;;;9.86;69.89
22440;BME280;11387;51.612;7.210;2023-02-12T10:08:21;103096.31;;;9.90;69.74
22440;BME280;11387;51.612;7.210;2023-02-12T10:11:00;103095.41;;;10.08;68.74
22440;BME280;11387;51.612;7.210;2023-02-12T10:13:42;103093.75;;;10.19;69.01
22440;BME280;11387;51.612;7.210;2023-02-12T10:16:30;103101.09;;;10.36;68.60
22440;BME280;11387;51.612;7.210;2023-02-12T10:19:16;103100.97;;;10.55;68.32
22440;BME280;11387;51.612;7.210;2023-02-12T10:21:57;103088.09;;;10.78;66.69
22440;BME280;11387;51.612;7.210;2023-02-12T10:24:42;103091.78;;;10.84;65.73
22440;BME280;11387;51.612;7.210;2023-02-12T10:27:17;103091.06;;;10.89;65.60
22440;BME280;11387;51.612;7.210;2023-02-12T10:29:50;103088.78;;;10.97;65.59
22440;BME280;11387;51.612;7.210;2023-02-12T10:32:25;103095.34;;;10.96;65.92
22440;BME280;11387;51.612;7.210;2023-02-12T10:34:55;103089.56;;;11.09;65.44
22440;BME280;11387;51.612;7.210;2023-02-12T10:37:29;103095.88;;;11.22;64.32
22440;BME280;11387;51.612;7.210;2023-02-12T10:40:04;103096.06;;;11.32;63.59
22440;BME280;11387;51.612;7.210;2023-02-12T10:42:42;103085.22;;;11.37;64.15
22440;BME280;11387;51.612;7.210;2023-02-12T10:45:14;103087.56;;;11.45;63.04
22440;BME280;11387;51.612;7.210;2023-02-12T10:47:45;103088.25;;;11.52;62.96
22440;BME280;11387;51.612;7.210;2023-02-12T10:50:24;103084.31;;;11.60;63.15
22440;BME280;11387;51.612;7.210;2023-02-12T10:52:57;103086.81;;;11.61;62.60
22440;BME280;11387;51.612;7.210;2023-02-12T10:55:31;103081.84;;;11.46;63.34
22440;BME280;11387;51.612;7.210;2023-02-12T10:58:02;103086.13;;;11.54;62.68
22440;BME280;11387;51.612;7.210;2023-02-12T11:00:34;103080.28;;;11.51;63.05
22440;BME280;11387;51.612;7.210;2023-02-12T11:03:16;103085.88;;;11.56;62.94
22440;BME280;11387;51.612;7.210;2023-02-12T11:05:47;103085.69;;;11.34;63.04
22440;BME280;11387;51.612;7.210;2023-02-12T11:08:34;103091.69;;;11.31;63.55
22440;BME280;11387;51.612;7.210;2023-02-12T11:11:08;103078.34;;;11.23;63.94
22440;BME280;11387;51.612;7.210;2023-02-12T11:13:40;103079.31;;;11.17;64.01
22440;BME280;11387;51.612;7.210;2023-02-12T11:16:13;103070.72;;;11.25;63.60
22440;BME280;11387;51.612;7.210;2023-02-12T11:18:57;103067.09;;;11.36;63.85
22440;BME280;11387;51.612;7.210;2023-02-12T11:21:26;103076.72;;;11.50;61.98
22440;BME280;11387;51.612;7.210;2023-02-12T11:23:55;103070.44;;;11.38;62.96
22440;BME280;11387;51.612;7.210;2023-02-12T11:26:26;103066.44;;;11.29;63.10
22440;BME280;11387;51.612;7.210;2023-02-12T11:28:57;103071.28;;;10.98;64.08
22440;BME280;11387;51.612;7.210;2023-02-12T11:31:29;103076.31;;;10.78;64.50
22440;BME280;11387;51.612;7.210;2023-02-12T11:34:08;103062.28;;;10.63;64.99
22440;BME280;11387;51.612;7.210;2023-02-12T11:36:39;103061.09;;;10.59;65.69
22440;BME280;11387;51.612;7.210;2023-02-12T11:39:18;103060.34;;;10.75;65.70
22440;BME280;11387;51.612;7.210;2023-02-12T11:41:51;103060.59;;;10.85;65.46
22440;BME280;11387;51.612;7.210;2023-02-12T11:44:24;103057.66;;;11.03;65.34
22440;BME280;11387;51.612;7.210;2023-02-12T11:46:57;103067.47;;;10.99;64.96
22440;BME280;11387;51.612;7.210;2023-02-12T11:49:31;103059.91;;;11.18;64.08
22440;BME280;11387;51.612;7.210;2023-02-12T11:52:03;103052.06;;;11.10;64.86
22440;BME280;11387;51.612;7.210;2023-02-12T11:54:38;103056.72;;;11.09;64.28
22440;BME280;11387;51.612;7.210;2023-02-12T11:57:36;103046.81;;;11.08;64.77
22440;BME280;11387;51.612;7.210;2023-02-12T12:00:12;103051.03;;;10.99;64.89
22440;BME280;11387;51.612;7.210;2023-02-12T12:02:48;103045.03;;;11.02;65.22
22440;BME280;11387;51.612;7.210;2023-02-12T12:05:19;103051.94;;;11.05;64.80
22440;BME280;11387;51.612;7.210;2023-02-12T12:07:51;103051.34;;;11.03;65.05
22440;BME280;11387;51.612;7.210;2023-02-12T12:10:32;103040.09;;;10.99;64.61
22440;BME280;11387;51.612;7.210;2023-02-12T12:13:04;103037.81;;;10.96;64.26
22440;BME280;11387;51.612;7.210;2023-02-12T12:15:42;103035.31;;;10.95;64.46
22440;BME280;11387;51.612;7.210;2023-02-12T12:18:40;103030.63;;;11.07;64.21
22440;BME280;11387;51.612;7.210;2023-02-12T12:21:35;103026.56;;;11.09;64.28
22440;BME280;11387;51.612;7.210;2023-02-12T12:24:10;103020.06;;;10.99;65.17
22440;BME280;11387;51.612;7.210;2023-02-12T12:26:56;103020.31;;;10.97;64.11
22440;BME280;11387;51.612;7.210;2023-02-12T12:29:40;103024.59;;;10.93;64.69
22440;BME280;11387;51.612;7.210;2023-02-12T12:32:13;103014.44;;;10.65;65.48
22440;BME280;11387;51.612;7.210;2023-02-12T12:34:46;103018.13;;;10.59;65.51
22440;BME280;11387;51.612;7.210;2023-02-12T12:37:21;103012.19;;;10.51;65.92
22440;BME280;11387;51.612;7.210;2023-02-12T12:40:05;103013.38;;;10.43;66.22
22440;BME280;11387;51.612;7.210;2023-02-12T12:42:55;103014.31;;;10.49;66.78
22440;BME280;11387;51.612;7.210;2023-02-12T12:52:08;103012.16;;;10.04;67.22
22440;BME280;11387;51.612;7.210;2023-02-12T12:54:49;103009.19;;;10.17;67.36
22440;BME280;11387;51.612;7.210;2023-02-12T12:57:36;103011.84;;;10.35;67.53
22440;BME280;11387;51.612;7.210;2023-02-12T13:00:14;103003.25;;;10.43;66.88
22440;BME280;11387;51.612;7.210;2023-02-12T13:03:36;102998.72;;;10.49;66.53
22440;BME280;11387;51.612;7.210;2023-02-12T13:06:31;102994.56;;;10.46;66.48
22440;BME280;11387;51.612;7.210;2023-02-12T13:09:25;102983.03;;;10.44;65.86
22440;BME280;11387;51.612;7.210;2023-02-12T13:12:12;102981.16;;;10.33;65.97
22440;BME280;11387;51.612;7.210;2023-02-12T13:14:47;102979.72;;;10.19;66.30
22440;BME280;11387;51.612;7.210;2023-02-12T13:17:22;102970.16;;;10.10;66.72
22440;BME280;11387;51.612;7.210;2023-02-12T13:19:59;102969.94;;;10.11;67.09
22440;BME280;11387;51.612;7.210;2023-02-12T13:22:36;102968.03;;;10.12;67.27
22440;BME280;11387;51.612;7.210;2023-02-12T13:25:20;102978.75;;;10.02;67.42
22440;BME280;11387;51.612;7.210;2023-02-12T13:27:51;102969.22;;;9.93;67.46
22440;BME280;11387;51.612;7.210;2023-02-12T13:30:22;102957.69;;;9.91;67.60
22440;BME280;11387;51.612;7.210;2023-02-12T13:33:00;102962.09;;;9.92;67.77
22440;BME280;11387;51.612;7.210;2023-02-12T13:35:32;102961.63;;;10.06;67.71
22440;BME280;11387;51.612;7.210;2023-02-12T13:38:03;102959.84;;;9.89;67.91